Time;durP1;ratioP1;P1;durP2;ratioP2;P2;SDS_P1;SDS_P2;PMS_P1;PMS_P2;Temp;Humidity;BMP_temperature;BMP_pressure;BME280_temperature;BME280_humidity;BME280_pressure;Samples;Min_cycle;Max_cycle;Signal;HPM_P1;HPM_P2
2021/08/06 00:01:53;;;;;;;7.57;6.57;;;;;;;14.15;100.00;97226.50;5085850;28;20634;-74
2021/08/06 00:04:21;;;;;;;7.93;7.10;;;;;;;14.21;100.00;97226.72;5082035;28;20202;-71
2021/08/06 00:06:49;;;;;;;7.77;6.90;;;;;;;14.29;100.00;97229.19;5074560;28;20213;-71
2021/08/06 00:09:18;;;;;;;7.30;6.70;;;;;;;14.28;100.00;97224.88;5076254;28;20544;-74
2021/08/06 00:11:45;;;;;;;8.63;6.73;;;;;;;14.28;100.00;97225.69;5084052;28;20409;-74
2021/08/06 00:14:13;;;;;;;8.40;7.63;;;;;;;14.31;100.00;97232.47;5084568;28;20743;-74
2021/08/06 00:16:42;;;;;;;7.53;6.93;;;;;;;14.26;100.00;97235.72;5082718;28;20297;-72
2021/08/06 00:19:11;;;;;;;8.00;7.03;;;;;;;14.18;100.00;97236.75;5083325;28;20348;-74
2021/08/06 00:21:39;;;;;;;7.10;6.53;;;;;;;14.23;100.00;97232.69;5090318;28;20193;-74
2021/08/06 00:24:07;;;;;;;6.23;5.77;;;;;;;14.21;100.00;97237.41;5085216;28;20240;-75
2021/08/06 00:26:35;;;;;;;6.47;5.87;;;;;;;14.17;100.00;97235.13;5089749;28;20214;-75
2021/08/06 00:29:03;;;;;;;6.03;5.63;;;;;;;14.13;100.00;97241.06;5078172;28;20225;-74
2021/08/06 00:31:31;;;;;;;6.50;5.83;;;;;;;14.22;100.00;97237.16;5080985;28;20614;-74
2021/08/06 00:33:58;;;;;;;9.63;5.63;;;;;;;14.20;100.00;97231.22;5091347;28;20201;-75
2021/08/06 00:36:28;;;;;;;5.47;4.97;;;;;;;14.10;100.00;97223.66;5085472;28;20400;-75
2021/08/06 00:38:56;;;;;;;4.83;4.53;;;;;;;14.10;100.00;97228.97;5086475;28;20225;-75
2021/08/06 00:41:24;;;;;;;4.60;4.13;;;;;;;14.18;100.00;97230.63;5084296;28;20206;-75
2021/08/06 00:43:52;;;;;;;7.17;4.90;;;;;;;14.09;100.00;97224.66;5086905;28;20205;-74
2021/08/06 00:46:20;;;;;;;4.93;4.30;;;;;;;14.07;100.00;97216.06;5083412;28;20206;-74
2021/08/06 00:48:48;;;;;;;3.97;3.67;;;;;;;14.02;100.00;97207.88;5081542;28;21056;-75
2021/08/06 00:51:16;;;;;;;4.07;3.77;;;;;;;14.10;100.00;97214.84;5081999;28;20227;-74
2021/08/06 00:53:45;;;;;;;4.13;3.83;;;;;;;14.13;100.00;97203.78;5085159;28;20205;-74
2021/08/06 00:56:13;;;;;;;3.60;3.40;;;;;;;14.11;100.00;97211.16;5080089;28;20210;-75
2021/08/06 00:58:42;;;;;;;3.87;3.43;;;;;;;14.06;100.00;97206.44;5085286;28;20574;-75
2021/08/06 01:01:10;;;;;;;3.70;3.40;;;;;;;14.10;100.00;97212.19;5073841;28;20222;-75
2021/08/06 01:03:48;;;;;;;3.83;3.53;;;;;;;14.13;100.00;97215.25;5088920;28;20209;-75
2021/08/06 01:06:20;;;;;;;3.70;3.50;;;;;;;14.11;100.00;97208.50;5082131;28;20225;-75
2021/08/06 01:08:54;;;;;;;4.53;4.23;;;;;;;14.18;100.00;97211.97;5077929;28;20221;-73
2021/08/06 01:11:25;;;;;;;4.47;4.07;;;;;;;14.23;100.00;97216.69;5083668;28;20225;-75
2021/08/06 01:13:55;;;;;;;4.57;4.13;;;;;;;14.11;100.00;97211.16;5087073;28;20201;-75
2021/08/06 01:16:27;;;;;;;4.67;4.27;;;;;;;14.15;100.00;97210.53;5082863;28;20288;-75
2021/08/06 01:19:00;;;;;;;4.47;4.07;;;;;;;14.12;100.00;97202.94;5084277;28;20276;-74
2021/08/06 01:21:28;;;;;;;5.03;4.53;;;;;;;14.12;100.00;97205.59;5087732;28;20198;-74
2021/08/06 01:23:59;;;;;;;4.83;4.43;;;;;;;14.12;100.00;97204.81;5083604;28;20202;-74
2021/08/06 01:26:29;;;;;;;6.47;4.40;;;;;;;14.22;100.00;97204.41;5087883;28;20678;-75
2021/08/06 01:28:57;;;;;;;5.17;4.63;;;;;;;14.21;100.00;97200.91;5078704;28;20297;-74
2021/08/06 01:31:28;;;;;;;5.87;4.40;;;;;;;14.17;100.00;97202.34;5081764;28;20232;-74
2021/08/06 01:33:56;;;;;;;5.17;4.50;;;;;;;14.18;100.00;97199.44;5089543;28;20223;-75
2021/08/06 01:36:24;;;;;;;4.67;4.33;;;;;;;14.14;100.00;97200.88;5087999;28;20202;-74
2021/08/06 01:38:53;;;;;;;5.13;4.73;;;;;;;14.08;100.00;97193.72;5085865;28;20282;-75
2021/08/06 01:41:25;;;;;;;5.03;4.57;;;;;;;14.04;100.00;97189.84;5079437;28;20203;-74
2021/08/06 01:44:02;;;;;;;5.17;4.77;;;;;;;14.02;100.00;97191.88;5083328;28;20193;-75
2021/08/06 01:46:33;;;;;;;5.50;4.83;;;;;;;14.01;100.00;97188.38;5085712;28;20214;-75
2021/08/06 01:49:08;;;;;;;4.63;4.33;;;;;;;14.06;100.00;97197.63;5088218;28;20321;-75
2021/08/06 01:51:38;;;;;;;7.17;4.70;;;;;;;14.03;100.00;97189.03;5084184;28;20244;-74
2021/08/06 01:54:07;;;;;;;4.70;4.40;;;;;;;13.98;100.00;97190.66;5081781;28;20658;-74
2021/08/06 01:56:35;;;;;;;4.90;4.50;;;;;;;14.05;100.00;97183.47;5080719;28;20637;-74
2021/08/06 01:59:04;;;;;;;5.13;4.70;;;;;;;14.00;100.00;97189.41;5085349;28;20598;-74
2021/08/06 02:01:32;;;;;;;9.70;5.07;;;;;;;14.03;100.00;97183.72;5092160;28;20202;-74
2021/08/06 02:04:01;;;;;;;5.83;5.30;;;;;;;13.99;100.00;97178.97;5083683;28;20268;-72
2021/08/06 02:06:29;;;;;;;4.67;4.43;;;;;;;13.94;100.00;97184.13;5082342;28;20211;-73
2021/08/06 02:08:57;;;;;;;6.00;5.43;;;;;;;13.91;100.00;97180.00;5083189;28;20468;-74
2021/08/06 02:11:25;;;;;;;4.97;4.67;;;;;;;13.96;100.00;97188.19;5085839;28;20206;-74
2021/08/06 02:13:53;;;;;;;5.50;4.70;;;;;;;13.89;100.00;97185.56;5088015;28;20201;-74
2021/08/06 02:16:25;;;;;;;5.20;4.70;;;;;;;13.89;100.00;97182.88;5082088;28;20206;-72
2021/08/06 02:18:55;;;;;;;5.90;5.30;;;;;;;13.89;100.00;97184.72;5083216;28;20733;-74
2021/08/06 02:21:26;;;;;;;5.57;5.10;;;;;;;13.94;100.00;97189.44;5080739;28;20206;-73
2021/08/06 02:23:56;;;;;;;5.30;4.90;;;;;;;13.93;100.00;97187.81;5084860;28;20535;-74
2021/08/06 02:26:25;;;;;;;5.50;5.10;;;;;;;14.02;100.00;97182.06;5087134;28;20524;-74
2021/08/06 02:28:53;;;;;;;6.87;5.37;;;;;;;13.95;100.00;97183.88;5083884;28;20230;-74
2021/08/06 02:31:21;;;;;;;5.20;4.80;;;;;;;13.91;100.00;97187.19;5080169;28;20218;-72
2021/08/06 02:33:51;;;;;;;5.23;4.83;;;;;;;13.89;100.00;97172.25;5090844;28;20276;-74
2021/08/06 02:36:19;;;;;;;4.87;4.47;;;;;;;13.87;100.00;97176.13;5089090;28;20721;-74
2021/08/06 02:38:47;;;;;;;5.20;4.80;;;;;;;13.81;100.00;97172.41;5092801;28;20221;-74
2021/08/06 02:41:15;;;;;;;4.80;4.40;;;;;;;13.83;100.00;97175.72;5092072;28;20206;-74
2021/08/06 02:43:43;;;;;;;5.93;4.70;;;;;;;13.74;100.00;97171.59;5089589;28;20193;-74
2021/08/06 02:46:11;;;;;;;4.47;4.17;;;;;;;13.69;100.00;97169.56;5084277;28;20219;-74
2021/08/06 02:48:39;;;;;;;5.23;4.60;;;;;;;13.73;100.00;97169.97;5092095;28;20242;-74
2021/08/06 02:51:08;;;;;;;5.10;4.33;;;;;;;13.66;100.00;97169.16;5087991;28;20206;-74
2021/08/06 02:53:36;;;;;;;4.90;4.40;;;;;;;13.70;100.00;97173.88;5088747;28;20430;-74
2021/08/06 02:56:05;;;;;;;5.30;4.70;;;;;;;13.62;100.00;97165.25;5085663;28;20210;-74
2021/08/06 02:58:33;;;;;;;4.40;4.10;;;;;;;13.49;100.00;97168.72;5089118;28;20225;-74
2021/08/06 03:01:00;;;;;;;4.60;4.20;;;;;;;13.51;100.00;97167.50;5083863;28;20566;-74
2021/08/06 03:03:28;;;;;;;5.00;4.60;;;;;;;13.42;100.00;97163.34;5088707;28;20235;-74
2021/08/06 03:05:56;;;;;;;4.67;4.37;;;;;;;13.42;100.00;97166.00;5089043;28;20577;-74
2021/08/06 03:08:26;;;;;;;4.10;3.83;;;;;;;13.34;100.00;97168.88;5085415;28;20579;-74
2021/08/06 03:10:54;;;;;;;4.23;4.03;;;;;;;13.34;100.00;97163.53;5088336;28;20523;-74
2021/08/06 03:13:21;;;;;;;5.30;4.80;;;;;;;13.32;100.00;97174.41;5090613;28;20643;-74
2021/08/06 03:15:49;;;;;;;4.43;4.00;;;;;;;13.26;100.00;97170.69;5090009;28;20214;-74
2021/08/06 03:18:17;;;;;;;4.70;4.40;;;;;;;13.32;100.00;97185.06;5090534;28;20233;-74
2021/08/06 03:20:45;;;;;;;4.53;4.23;;;;;;;13.36;100.00;97186.28;5096473;28;20709;-74
2021/08/06 03:23:13;;;;;;;4.63;4.23;;;;;;;13.40;100.00;97178.69;5089200;28;20206;-75
2021/08/06 03:25:42;;;;;;;4.63;4.33;;;;;;;13.39;100.00;97182.38;5089037;28;20402;-74
2021/08/06 03:28:10;;;;;;;4.27;3.97;;;;;;;13.45;100.00;97185.09;5085912;28;20222;-74
2021/08/06 03:30:38;;;;;;;4.57;4.27;;;;;;;13.51;100.00;97195.94;5082533;28;20202;-74
2021/08/06 03:33:06;;;;;;;3.90;3.70;;;;;;;13.51;100.00;97190.63;5093193;28;20244;-74
2021/08/06 03:35:34;;;;;;;4.30;3.90;;;;;;;13.55;100.00;97194.53;5091097;28;20218;-74
2021/08/06 03:38:06;;;;;;;3.70;3.50;;;;;;;13.63;100.00;97189.00;5089539;28;20315;-74
2021/08/06 03:40:34;;;;;;;3.77;3.57;;;;;;;13.54;100.00;97190.22;5088671;28;20202;-74
2021/08/06 03:43:03;;;;;;;3.73;3.53;;;;;;;13.53;100.00;97191.25;5084771;28;20611;-74
2021/08/06 03:45:31;;;;;;;4.43;4.07;;;;;;;13.54;100.00;97192.88;5090091;28;20215;-74
2021/08/06 03:47:59;;;;;;;4.03;3.80;;;;;;;13.56;100.00;97191.66;5088575;28;20229;-74
2021/08/06 03:50:27;;;;;;;4.20;3.90;;;;;;;13.62;100.00;97191.88;5085115;28;20260;-74
2021/08/06 03:52:55;;;;;;;3.87;3.53;;;;;;;13.57;100.00;97190.66;5090866;28;20227;-74
2021/08/06 03:55:23;;;;;;;3.57;3.30;;;;;;;13.50;100.00;97189.00;5088424;28;20218;-74
2021/08/06 03:57:52;;;;;;;3.70;3.50;;;;;;;13.57;100.00;97187.16;5089919;28;20222;-74
2021/08/06 04:00:22;;;;;;;6.20;3.50;;;;;;;13.51;100.00;97195.94;5089884;28;20207;-74
2021/08/06 04:02:50;;;;;;;3.50;3.30;;;;;;;13.57;100.00;97188.00;5077348;28;20199;-74
2021/08/06 04:05:18;;;;;;;3.57;3.27;;;;;;;13.52;100.00;97187.78;5069568;28;20219;-74
2021/08/06 04:07:47;;;;;;;3.00;2.90;;;;;;;13.58;100.00;97194.94;5077260;28;20657;-74
2021/08/06 04:10:17;;;;;;;3.30;3.10;;;;;;;13.45;100.00;97187.75;5090199;28;20249;-74
2021/08/06 04:12:46;;;;;;;3.10;2.90;;;;;;;13.36;100.00;97180.13;5084892;28;20224;-74
2021/08/06 04:15:14;;;;;;;4.50;3.60;;;;;;;13.31;100.00;97183.41;5090814;28;20202;-74
2021/08/06 04:17:44;;;;;;;3.90;3.03;;;;;;;13.35;100.00;97178.50;5084477;28;20225;-74
2021/08/06 04:20:12;;;;;;;2.80;2.70;;;;;;;13.28;100.00;97176.66;5081977;28;20212;-74
2021/08/06 04:22:41;;;;;;;3.53;3.30;;;;;;;13.24;100.00;97175.41;5086380;28;20927;-75
2021/08/06 04:25:10;;;;;;;3.87;3.60;;;;;;;13.21;100.00;97174.97;5083021;28;20225;-74
2021/08/06 04:27:39;;;;;;;3.50;3.30;;;;;;;13.18;100.00;97170.91;5085164;28;20245;-75
2021/08/06 04:30:08;;;;;;;3.63;3.13;;;;;;;13.19;100.00;97169.88;5083519;28;20221;-74
2021/08/06 04:32:36;;;;;;;3.80;3.50;;;;;;;13.20;100.00;97168.84;5083914;28;20505;-73
2021/08/06 04:35:07;;;;;;;3.77;3.47;;;;;;;13.19;100.00;97169.88;5077489;28;20243;-74
2021/08/06 04:37:35;;;;;;;3.60;3.40;;;;;;;13.14;100.00;97174.97;5094463;28;20225;-69
2021/08/06 04:40:03;;;;;;;4.10;3.90;;;;;;;13.15;100.00;97174.75;5081067;28;20233;-69
2021/08/06 04:42:31;;;;;;;3.83;3.60;;;;;;;13.11;100.00;97165.53;5082446;28;20213;-69
2021/08/06 04:44:59;;;;;;;4.47;4.10;;;;;;;13.13;100.00;97174.16;5087709;28;20225;-69
2021/08/06 04:47:27;;;;;;;4.40;4.10;;;;;;;13.14;100.00;97164.34;5083855;28;20230;-69
2021/08/06 04:49:55;;;;;;;3.77;3.47;;;;;;;13.23;100.00;97170.28;5084969;28;20210;-69
2021/08/06 04:52:24;;;;;;;3.93;3.50;;;;;;;13.30;100.00;97171.13;5090189;28;20210;-70
2021/08/06 04:54:52;;;;;;;3.13;3.00;;;;;;;13.42;100.00;97172.19;5084618;28;20234;-69
2021/08/06 04:57:20;;;;;;;3.30;2.97;;;;;;;13.36;100.00;97164.16;5087825;28;20226;-67
2021/08/06 04:59:48;;;;;;;3.50;3.30;;;;;;;13.46;100.00;97170.78;5082402;28;20681;-68
2021/08/06 05:02:16;;;;;;;3.77;3.47;;;;;;;13.49;100.00;97166.91;5088349;28;20202;-69
2021/08/06 05:04:44;;;;;;;3.10;2.90;;;;;;;13.56;100.00;97159.72;5086890;28;20611;-69
2021/08/06 05:07:17;;;;;;;3.07;2.87;;;;;;;13.62;100.00;97163.41;5084099;28;20209;-70
2021/08/06 05:09:47;;;;;;;2.70;2.60;;;;;;;13.60;100.00;97157.47;5087129;28;20214;-69
2021/08/06 05:12:15;;;;;;;2.70;2.50;;;;;;;13.83;100.00;97164.25;5091344;28;20599;-70
2021/08/06 05:14:43;;;;;;;3.63;3.33;;;;;;;13.85;100.00;97157.69;5083430;28;20306;-68
2021/08/06 05:17:11;;;;;;;2.70;2.60;;;;;;;13.89;100.00;97155.44;5078571;28;20206;-72
2021/08/06 05:19:39;;;;;;;3.23;2.60;;;;;;;13.96;100.00;97150.09;5084818;28;20233;-68
2021/08/06 05:22:08;;;;;;;3.10;2.87;;;;;;;14.15;100.00;97137.78;5086249;28;20546;-74
2021/08/06 05:24:36;;;;;;;2.87;2.67;;;;;;;14.32;100.00;97138.97;5079982;28;20206;-70
2021/08/06 05:27:06;;;;;;;2.80;2.70;;;;;;;14.36;100.00;97134.03;5080581;28;20618;-70
2021/08/06 05:29:35;;;;;;;2.80;2.60;;;;;;;14.30;100.00;97137.53;5081366;28;20253;-70
2021/08/06 05:32:04;;;;;;;2.90;2.70;;;;;;;14.31;100.00;97132.00;5082232;28;20247;-69
2021/08/06 05:34:34;;;;;;;3.27;2.60;;;;;;;14.36;100.00;97122.53;5086439;28;20637;-69
2021/08/06 05:37:02;;;;;;;3.03;2.73;;;;;;;14.42;100.00;97127.88;5084551;28;20251;-69
2021/08/06 05:39:30;;;;;;;2.97;2.77;;;;;;;14.38;100.00;97120.50;5082354;28;20316;-71
2021/08/06 05:41:58;;;;;;;4.40;3.17;;;;;;;14.54;100.00;97127.19;5084950;28;20668;-71
2021/08/06 05:44:28;;;;;;;3.00;2.80;;;;;;;14.61;100.00;97122.69;5084098;28;20398;-70
2021/08/06 05:46:56;;;;;;;3.27;3.07;;;;;;;14.65;100.00;97128.41;5079026;28;20236;-73
2021/08/06 05:49:25;;;;;;;7.63;3.40;;;;;;;14.83;100.00;97122.41;5082059;28;20214;-71
2021/08/06 05:51:53;;;;;;;5.50;4.03;;;;;;;14.77;100.00;97124.06;5091386;28;20630;-73
2021/08/06 05:54:22;;;;;;;4.03;3.63;;;;;;;14.83;100.00;97125.06;5081930;28;20229;-72
2021/08/06 05:56:50;;;;;;;4.83;4.43;;;;;;;14.96;100.00;97121.53;5084837;28;20213;-72
2021/08/06 05:59:18;;;;;;;4.63;4.13;;;;;;;14.90;100.00;97120.50;5085139;28;20328;-71
2021/08/06 06:01:48;;;;;;;4.57;4.27;;;;;;;14.98;100.00;97117.63;5077167;28;20213;-70
2021/08/06 06:04:17;;;;;;;4.43;3.20;;;;;;;15.16;100.00;97116.91;5084554;28;20584;-71
2021/08/06 06:06:44;;;;;;;3.73;3.50;;;;;;;15.37;100.00;97114.09;5087321;28;20206;-70
2021/08/06 06:09:12;;;;;;;3.40;3.20;;;;;;;15.62;100.00;97114.09;5088642;28;20221;-71
2021/08/06 06:11:40;;;;;;;4.17;3.53;;;;;;;15.44;100.00;97113.00;5083717;28;20206;-70
2021/08/06 06:14:08;;;;;;;3.37;3.20;;;;;;;15.41;100.00;97124.09;5081272;28;20234;-71
2021/08/06 06:16:36;;;;;;;3.03;2.50;;;;;;;15.58;100.00;97136.94;5096384;28;20613;-68
2021/08/06 06:19:05;;;;;;;3.50;2.50;;;;;;;15.68;100.00;97136.44;5089251;28;20226;-70
2021/08/06 06:21:33;;;;;;;3.33;3.13;;;;;;;15.84;100.00;97138.56;5090739;28;20218;-70
2021/08/06 06:24:01;;;;;;;2.60;2.30;;;;;;;15.93;100.00;97132.97;5085986;28;20207;-69
2021/08/06 06:26:29;;;;;;;3.37;2.83;;;;;;;16.01;100.00;97138.88;5088068;28;20218;-73
2021/08/06 06:28:57;;;;;;;2.43;2.23;;;;;;;16.25;100.00;97140.91;5085984;28;20272;-69
2021/08/06 06:31:25;;;;;;;2.87;2.60;;;;;;;16.47;100.00;97135.94;5087145;28;20743;-71
2021/08/06 06:33:53;;;;;;;2.63;2.50;;;;;;;16.40;100.00;97136.00;5086479;28;20205;-71
2021/08/06 06:36:22;;;;;;;2.07;1.90;;;;;;;16.40;100.00;97136.00;5091109;28;20206;-72
2021/08/06 06:38:50;;;;;;;2.20;2.07;;;;;;;16.41;100.00;97132.28;5078683;28;20223;-73
2021/08/06 06:41:18;;;;;;;2.07;1.97;;;;;;;16.34;100.00;97147.56;5088791;28;20205;-72
2021/08/06 06:43:46;;;;;;;2.20;2.00;;;;;;;16.31;100.00;97148.84;5085896;28;20209;-72
2021/08/06 06:46:14;;;;;;;2.70;2.50;;;;;;;16.40;100.00;97156.56;5089184;28;20205;-72
2021/08/06 06:48:45;;;;;;;4.10;2.50;;;;;;;16.44;100.00;97163.13;5087892;28;20221;-74
2021/08/06 06:51:13;;;;;;;2.23;2.10;;;;;;;16.60;100.00;97159.03;5084385;28;20202;-76
2021/08/06 06:53:46;;;;;;;2.23;2.10;;;;;;;16.61;100.00;97156.13;5085278;28;20549;-72
2021/08/06 06:56:14;;;;;;;2.73;2.57;;;;;;;16.52;100.00;97160.13;5086816;28;20988;-72
2021/08/06 06:58:42;;;;;;;2.17;1.93;;;;;;;16.76;100.00;97157.63;5089189;28;20225;-76
2021/08/06 07:01:10;;;;;;;2.47;2.13;;;;;;;16.83;100.00;97165.53;5088660;28;20210;-71
2021/08/06 07:03:38;;;;;;;3.00;2.37;;;;;;;16.93;100.00;97161.28;5093346;28;20202;-72
2021/08/06 07:06:06;;;;;;;2.33;2.23;;;;;;;17.20;100.00;97163.66;5089421;28;20207;-72
2021/08/06 07:08:34;;;;;;;2.20;2.10;;;;;;;17.05;100.00;97164.06;5088071;28;20757;-72
2021/08/06 07:11:05;;;;;;;5.30;2.53;;;;;;;17.17;100.00;97169.47;5081643;28;20298;-72
2021/08/06 07:13:33;;;;;;;2.23;1.93;;;;;;;17.26;100.00;97159.25;5086619;28;20558;-72
2021/08/06 07:16:01;;;;;;;2.60;1.80;;;;;;;17.19;100.00;97175.41;5088591;28;20282;-75
2021/08/06 07:18:29;;;;;;;2.30;2.20;;;;;;;17.14;100.00;97177.13;5084804;28;20226;-71
2021/08/06 07:20:59;;;;;;;3.03;2.70;;;;;;;16.97;100.00;97188.44;5083091;28;20212;-71
2021/08/06 07:23:27;;;;;;;2.67;2.30;;;;;;;16.89;100.00;97186.06;5089880;28;20210;-73
2021/08/06 07:25:55;;;;;;;1.70;1.60;;;;;;;17.10;100.00;97190.16;5083181;28;20621;-71
2021/08/06 07:28:24;;;;;;;4.07;2.07;;;;;;;17.09;100.00;97185.03;5088498;28;20234;-71
2021/08/06 07:30:52;;;;;;;3.60;2.70;;;;;;;16.84;100.00;97188.56;5086445;28;20209;-71
2021/08/06 07:33:20;;;;;;;2.00;1.90;;;;;;;16.88;100.00;97195.94;5087713;28;20330;-73
2021/08/06 07:35:48;;;;;;;2.07;1.80;;;;;;;16.84;100.00;97197.44;5082029;28;20226;-74
2021/08/06 07:38:16;;;;;;;2.27;2.17;;;;;;;16.90;100.00;97209.91;5083522;28;20440;-73
2021/08/06 07:40:44;;;;;;;4.37;2.17;;;;;;;16.92;100.00;97209.72;5086084;28;20197;-71
2021/08/06 07:43:12;;;;;;;2.20;2.10;;;;;;;16.85;100.00;97208.94;5087182;28;20578;-72
2021/08/06 07:45:43;;;;;;;3.60;2.00;;;;;;;16.85;100.00;97206.25;5087551;28;21594;-75
2021/08/06 07:48:11;;;;;;;2.10;2.00;;;;;;;16.95;100.00;97211.09;5084714;28;20237;-75
2021/08/06 07:50:39;;;;;;;2.30;1.80;;;;;;;16.79;100.00;97208.00;5085071;28;20221;-74
2021/08/06 07:53:08;;;;;;;2.50;1.97;;;;;;;16.75;100.00;97220.19;5087321;28;20210;-76
2021/08/06 07:55:35;;;;;;;2.03;1.90;;;;;;;16.68;100.00;97228.28;5089389;28;20228;-73
2021/08/06 07:58:03;;;;;;;2.10;1.97;;;;;;;16.42;100.00;97227.50;5085398;28;20226;-73
2021/08/06 08:00:31;;;;;;;2.43;2.27;;;;;;;16.13;100.00;97232.50;5088962;28;20218;-77
2021/08/06 08:03:01;;;;;;;2.40;2.30;;;;;;;15.93;100.00;97232.66;5090805;28;20205;-75
2021/08/06 08:05:29;;;;;;;2.83;2.63;;;;;;;15.65;100.00;97241.84;5082776;28;20639;-72
2021/08/06 08:07:57;;;;;;;4.23;2.93;;;;;;;15.32;100.00;97245.53;5081503;28;20594;-71
2021/08/06 08:10:25;;;;;;;3.27;2.97;;;;;;;15.03;100.00;97245.84;5083543;28;20198;-73
2021/08/06 08:13:09;;;;;;;4.00;3.13;;;;;;;14.96;100.00;97242.38;5080033;28;20251;-73
2021/08/06 08:15:38;;;;;;;3.17;2.97;;;;;;;14.85;100.00;97251.88;5083742;28;20720;-74
2021/08/06 08:18:07;;;;;;;3.07;2.87;;;;;;;14.76;100.00;97251.28;5079576;28;20824;-73
2021/08/06 08:20:35;;;;;;;4.73;3.03;;;;;;;14.68;100.00;97259.47;5085076;28;20206;-72
2021/08/06 08:23:04;;;;;;;3.70;3.40;;;;;;;14.67;100.00;97267.66;5079983;28;20614;-72
2021/08/06 08:25:32;;;;;;;3.30;3.10;;;;;;;14.70;100.00;97260.09;5031594;28;20690;-71
2021/08/06 08:28:00;;;;;;;3.70;3.23;;;;;;;14.65;100.00;97267.06;5063063;28;20719;-73
2021/08/06 08:30:28;;;;;;;3.87;3.57;;;;;;;14.63;100.00;97267.28;5067077;28;20210;-73
2021/08/06 08:32:59;;;;;;;3.40;3.20;;;;;;;14.61;100.00;97272.00;5070230;28;20287;-73
2021/08/06 08:35:28;;;;;;;3.77;3.47;;;;;;;14.62;100.00;97274.44;5064315;28;20227;-71
2021/08/06 08:37:56;;;;;;;4.77;3.80;;;;;;;14.62;100.00;97270.97;5062651;28;20223;-69
2021/08/06 08:40:24;;;;;;;3.27;3.07;;;;;;;14.68;100.00;97275.47;5063929;28;20238;-71
2021/08/06 08:42:54;;;;;;;3.50;3.10;;;;;;;14.68;100.00;97272.81;5061693;28;20688;-70
2021/08/06 08:45:23;;;;;;;3.50;3.30;;;;;;;14.72;100.00;97268.72;5060056;28;20314;-70
2021/08/06 08:47:53;;;;;;;4.10;3.40;;;;;;;14.77;100.00;97265.41;5068224;28;20226;-73
2021/08/06 08:50:21;;;;;;;3.27;3.00;;;;;;;14.95;100.00;97267.41;5063374;28;20207;-70
2021/08/06 08:52:50;;;;;;;5.53;3.00;;;;;;;15.13;100.00;97257.94;5071496;28;20216;-71
2021/08/06 08:55:18;;;;;;;3.50;3.30;;;;;;;15.32;100.00;97254.34;5057996;28;20486;-72
2021/08/06 08:57:46;;;;;;;3.87;3.60;;;;;;;15.45;100.00;97249.97;5064215;28;20237;-71
2021/08/06 09:00:24;;;;;;;3.43;3.23;;;;;;;15.52;100.00;97247.25;5061838;28;20249;-74
2021/08/06 09:02:52;;;;;;;3.80;3.50;;;;;;;15.61;100.00;97246.00;5054226;28;20195;-74
2021/08/06 09:05:24;;;;;;;4.50;4.10;;;;;;;15.79;100.00;97247.94;5060769;28;20202;-72
2021/08/06 09:07:54;;;;;;;3.50;3.30;;;;;;;15.77;100.00;97240.13;5061029;28;20443;-71
2021/08/06 09:10:25;;;;;;;14.40;3.43;;;;;;;15.96;100.00;97245.59;5059953;28;20337;-70
2021/08/06 09:12:57;;;;;;;3.90;3.60;;;;;;;16.14;100.00;97236.81;5061617;28;20503;-71
2021/08/06 09:15:43;;;;;;;3.63;3.33;;;;;;;16.21;100.00;97234.06;5057807;28;20211;-70
2021/08/06 09:18:42;;;;;;;3.53;3.33;;;;;;;16.33;100.00;97236.84;5063259;28;20248;-71
2021/08/06 09:21:21;;;;;;;3.80;3.50;;;;;;;16.26;100.00;97228.88;5057691;28;20203;-70
2021/08/06 09:23:52;;;;;;;2.87;2.77;;;;;;;16.25;100.00;97227.25;5051466;28;20682;-72
2021/08/06 09:26:44;;;;;;;3.90;3.60;;;;;;;16.54;100.00;97229.47;5062577;28;20210;-71
2021/08/06 09:29:14;;;;;;;3.60;3.20;;;;;;;16.73;100.00;97225.75;5044529;28;20228;-70
2021/08/06 09:31:44;;;;;;;3.27;3.07;;;;;;;17.11;100.00;97231.94;5055936;28;20290;-72
2021/08/06 09:34:23;;;;;;;3.37;3.27;;;;;;;17.20;100.00;97235.94;5057150;28;20302;-70
2021/08/06 09:37:00;;;;;;;3.33;3.10;;;;;;;17.31;100.00;97237.06;5061374;28;20225;-70
2021/08/06 09:39:33;;;;;;;3.83;3.63;;;;;;;17.41;100.00;97239.16;5057486;28;20203;-72
2021/08/06 09:42:16;;;;;;;3.20;2.90;;;;;;;17.60;100.00;97239.13;5061972;28;20221;-70
2021/08/06 09:44:45;;;;;;;3.40;3.13;;;;;;;17.69;100.00;97232.41;5061327;28;20634;-68
2021/08/06 09:47:19;;;;;;;4.00;3.00;;;;;;;17.93;100.00;97233.25;5062333;28;20212;-71
2021/08/06 09:49:47;;;;;;;2.73;2.63;;;;;;;18.01;100.00;97231.34;5051818;28;20286;-70
2021/08/06 09:52:15;;;;;;;2.70;2.50;;;;;;;17.79;100.00;97227.28;5055548;28;20203;-70
2021/08/06 09:54:50;;;;;;;2.70;2.60;;;;;;;17.67;100.00;97223.78;5064109;28;20206;-70
2021/08/06 09:57:18;;;;;;;2.83;2.70;;;;;;;17.74;100.00;97229.03;5058964;28;20227;-70
2021/08/06 09:59:51;;;;;;;3.40;2.87;;;;;;;17.87;100.00;97222.66;5062949;28;20198;-69
2021/08/06 10:02:22;;;;;;;2.67;2.43;;;;;;;18.05;100.00;97224.47;5056036;28;20218;-70
2021/08/06 10:05:02;;;;;;;2.97;2.77;;;;;;;18.32;100.00;97215.97;5057184;28;20252;-71
2021/08/06 10:07:31;;;;;;;3.00;2.80;;;;;;;18.48;100.00;97219.81;5065816;28;20799;-71
2021/08/06 10:10:01;;;;;;;3.23;3.03;;;;;;;18.73;100.00;97219.56;5061266;28;20469;-70
2021/08/06 10:12:29;;;;;;;3.40;3.20;;;;;;;18.82;100.00;97211.97;5063849;28;20214;-68
2021/08/06 10:14:57;;;;;;;4.00;3.07;;;;;;;18.90;100.00;97219.63;5058433;28;20387;-69
2021/08/06 10:17:25;;;;;;;2.73;2.63;;;;;;;19.07;100.00;97206.31;5066227;28;20230;-69
2021/08/06 10:19:53;;;;;;;2.87;2.60;;;;;;;18.65;100.00;97214.56;5066862;28;20207;-69
2021/08/06 10:22:22;;;;;;;2.73;2.53;;;;;;;18.31;100.00;97209.81;5067076;28;20199;-69
2021/08/06 10:24:52;;;;;;;2.73;2.60;;;;;;;18.26;100.00;97212.38;5065915;28;20203;-69
2021/08/06 10:27:23;;;;;;;2.70;2.53;;;;;;;17.89;100.00;97204.50;5066131;28;20437;-69
2021/08/06 10:29:59;;;;;;;4.03;3.13;;;;;;;17.46;100.00;97217.06;5060635;28;20204;-68
2021/08/06 10:32:27;;;;;;;4.00;3.00;;;;;;;17.25;100.00;97221.91;5068932;28;20210;-69
2021/08/06 10:35:23;;;;;;;3.47;3.27;;;;;;;16.62;100.00;97231.84;5068713;28;20207;-70
2021/08/06 10:37:54;;;;;;;6.33;3.40;;;;;;;16.63;100.00;97223.56;5062620;28;20238;-69
2021/08/06 10:40:55;;;;;;;2.30;2.10;;;;;;;16.61;100.00;97222.19;5069236;28;20206;-67
2021/08/06 10:43:39;;;;;;;1.90;1.80;;;;;;;16.61;100.00;97214.97;5056507;28;20209;-68
2021/08/06 10:46:07;;;;;;;1.87;1.77;;;;;;;16.74;100.00;97221.22;5064438;28;20199;-68
2021/08/06 10:48:37;;;;;;;1.57;1.47;;;;;;;16.79;100.00;97222.19;5063313;28;20856;-68
2021/08/06 10:51:18;;;;;;;2.00;1.77;;;;;;;16.83;100.00;97221.72;5060825;28;20585;-68
2021/08/06 10:53:48;;;;;;;2.40;2.20;;;;;;;16.84;100.00;97228.72;5058924;28;20222;-69
2021/08/06 10:56:26;;;;;;;2.40;1.50;;;;;;;16.87;100.00;97228.28;5069508;28;20211;-69
2021/08/06 10:58:57;;;;;;;3.50;1.60;;;;;;;17.01;100.00;97226.28;5065494;28;20570;-68
2021/08/06 11:01:38;;;;;;;1.60;1.50;;;;;;;16.87;100.00;97229.09;5062961;28;20218;-68
2021/08/06 11:04:07;;;;;;;1.33;1.30;;;;;;;17.04;100.00;97220.47;5063095;28;20718;-68
2021/08/06 11:06:37;;;;;;;1.33;1.33;;;;;;;17.03;100.00;97219.69;5060524;28;20223;-68
2021/08/06 11:09:40;;;;;;;1.90;1.80;;;;;;;17.25;100.00;97221.91;5065181;28;20210;-68
2021/08/06 11:12:10;;;;;;;1.70;1.60;;;;;;;17.50;100.00;97224.44;5067388;28;20874;-68
2021/08/06 11:15:02;;;;;;;2.33;1.70;;;;;;;17.61;100.00;97217.47;5063271;28;20261;-68
2021/08/06 11:17:45;;;;;;;1.77;1.67;;;;;;;17.79;100.00;97221.94;5064115;28;20234;-68
2021/08/06 11:20:16;;;;;;;1.87;1.77;;;;;;;18.11;100.00;97228.09;5063074;28;20659;-69
2021/08/06 11:22:45;;;;;;;1.33;1.33;;;;;;;18.06;100.00;97226.13;5067160;28;20190;-69
2021/08/06 11:25:17;;;;;;;1.73;1.40;;;;;;;18.37;100.00;97224.97;5064162;28;20215;-69
2021/08/06 11:27:47;;;;;;;1.60;1.50;;;;;;;18.14;100.00;97232.97;5057304;28;20219;-69
2021/08/06 11:30:18;;;;;;;2.00;1.37;;;;;;;17.98;100.00;97226.41;5065730;28;20267;-69
2021/08/06 11:32:48;;;;;;;1.73;1.50;;;;;;;17.73;100.00;97224.72;5062425;28;20662;-69
2021/08/06 11:35:18;;;;;;;1.30;1.20;;;;;;;17.83;100.00;97219.63;5061718;28;20701;-68
2021/08/06 11:37:49;;;;;;;2.80;1.67;;;;;;;18.17;100.00;97219.09;5059100;28;20231;-68